Alnwick, United Kingdom
Current Conditions -  °F | °C
As of 7:50 PM on Thursday 29 Jan 2015 (Local Time) from EGQM Reporting Station
Clear Clear  
Wind Chill: 23°   Ceiling: Unl
Heat Index: 32°   Visibility: 6mi
Dew Point: 28°   Wind: 12mph
Humidity: 87%   Direction: 270°W
Pressure: 28.7"   Gusts: NA
Location:  55.41°N, 1.71°W
Report Text: EGQM 291950Z AUTO 27010KT 9999 NCD 00/M02 Q0972
Loading
Personal Weather Stations






























Interactive Weather Map New forecast layout! Learn more

10-Day Weather Forecast

Advertisements
Track Severe Weather on mobile